Aviation Digital Data Service (ADDS)

Output produced by METARs form (0552 UTC 18 October 2018)
found at http://aviationweather.gov/metar/data/
 
KHUM 180520Z 1806/1906 04010G17KT P6SM OVC010 
     FM180800 04009KT P6SM OVC020 
     FM181100 04009KT P6SM SCT025 OVC045 
     FM181400 04009KT P6SM FEW015 SCT140 
     FM182000 07010KT P6SM FEW030 SCT150